createdAt,value
2022-12-11T00:02:52.909Z,45.03
2022-12-11T00:07:54.848Z,43.45
2022-12-11T00:12:56.762Z,47.72
2022-12-11T00:17:58.610Z,49.78
2022-12-11T00:23:00.428Z,53.47
2022-12-11T00:28:02.294Z,44.40
2022-12-11T00:33:04.162Z,47.83
2022-12-11T00:38:06.080Z,50.05
2022-12-11T00:43:07.957Z,45.92
2022-12-11T00:48:11.192Z,49.47
2022-12-11T00:53:13.054Z,47.70
2022-12-11T00:58:15.717Z,44.78
2022-12-11T01:03:18.178Z,50.33
2022-12-11T01:08:20.266Z,43.67
2022-12-11T01:13:22.108Z,45.47
2022-12-11T01:18:24.083Z,40.03
2022-12-11T01:23:25.973Z,43.83
2022-12-11T01:28:27.832Z,50.58
2022-12-11T01:33:29.753Z,45.42
2022-12-11T01:38:31.588Z,47.22
2022-12-11T01:43:33.434Z,49.00
2022-12-11T01:48:40.723Z,53.45
2022-12-11T01:53:50.092Z,35.93
2022-12-11T01:58:56.536Z,46.17
2022-12-11T02:03:58.925Z,48.72
2022-12-11T02:09:01.844Z,50.92
2022-12-11T02:14:28.424Z,44.22
2022-12-11T02:20:04.023Z,45.50
2022-12-11T02:25:44.558Z,42.50
2022-12-11T02:35:55.140Z,45.08
2022-12-11T02:40:59.003Z,47.20
2022-12-11T02:46:04.209Z,45.42
2022-12-11T02:51:09.201Z,49.45
2022-12-11T02:56:21.141Z,48.55
2022-12-11T03:01:23.097Z,44.38
2022-12-11T03:06:32.523Z,45.55
2022-12-11T03:16:47.358Z,47.20
2022-12-11T03:21:55.129Z,40.08
2022-12-11T03:27:11.045Z,40.88
2022-12-11T03:32:20.060Z,38.60
2022-12-11T03:37:24.216Z,40.38
2022-12-11T03:42:27.166Z,43.67
2022-12-11T03:47:30.220Z,42.45
2022-12-11T03:52:32.988Z,40.95
2022-12-11T03:57:37.844Z,40.72
2022-12-11T04:02:40.761Z,37.15
2022-12-11T04:07:42.631Z,33.13
2022-12-11T04:12:44.466Z,34.25
2022-12-11T04:18:04.721Z,28.65
2022-12-11T04:23:29.866Z,33.17
2022-12-11T04:28:31.828Z,29.02
2022-12-11T04:33:33.680Z,33.15
2022-12-11T04:38:35.638Z,37.92
2022-12-11T04:43:37.846Z,36.53
2022-12-11T04:48:40.055Z,35.30
2022-12-11T04:53:42.336Z,29.77
2022-12-11T04:58:45.319Z,35.05
2022-12-11T05:03:47.739Z,32.90
2022-12-11T05:08:49.532Z,31.50
2022-12-11T05:13:52.093Z,33.88
2022-12-11T05:18:54.531Z,29.83
2022-12-11T05:23:56.339Z,27.88
2022-12-11T05:28:58.199Z,32.08
2022-12-11T05:34:00.079Z,26.27
2022-12-11T05:39:04.067Z,47.55
2022-12-11T05:44:05.896Z,29.55
2022-12-11T05:49:08.194Z,32.03
2022-12-11T05:54:10.499Z,42.80
2022-12-11T05:59:12.332Z,37.50
2022-12-11T06:04:14.173Z,39.58
2022-12-11T06:09:17.126Z,35.28
2022-12-11T06:14:18.955Z,28.13
2022-12-11T06:19:20.793Z,29.02
2022-12-11T06:24:22.641Z,30.27
2022-12-11T06:29:24.510Z,30.92
2022-12-11T06:34:26.549Z,30.65
2022-12-11T06:39:28.342Z,30.27
2022-12-11T06:44:30.183Z,27.05
2022-12-11T06:49:31.997Z,30.00
2022-12-11T06:54:33.954Z,28.27
2022-12-11T06:59:35.867Z,29.00
2022-12-11T07:04:37.660Z,27.20
2022-12-11T07:09:41.165Z,21.17
2022-12-11T07:14:43.018Z,29.23
2022-12-11T07:19:44.896Z,24.65
2022-12-11T07:24:46.707Z,34.38
2022-12-11T07:29:48.559Z,33.47
2022-12-11T07:34:52.126Z,27.45
2022-12-11T07:39:54.150Z,29.63
2022-12-11T07:44:56.044Z,32.60
2022-12-11T07:49:57.866Z,31.20
2022-12-11T07:54:59.728Z,25.05
2022-12-11T08:00:01.568Z,29.27
2022-12-11T08:05:03.524Z,31.17
2022-12-11T08:10:05.767Z,32.20
2022-12-11T08:15:08.180Z,29.20
2022-12-11T08:20:11.290Z,31.75
2022-12-11T08:25:13.498Z,25.75
2022-12-11T08:30:15.743Z,24.08
2022-12-11T08:35:17.689Z,27.33
2022-12-11T08:40:20.398Z,32.88
2022-12-11T08:45:22.227Z,34.50
2022-12-11T08:50:24.021Z,32.78
2022-12-11T08:55:25.834Z,29.38
2022-12-11T09:00:27.727Z,26.92
2022-12-11T09:05:29.855Z,29.08
2022-12-11T09:10:32.078Z,30.60
2022-12-11T09:15:34.071Z,27.30
2022-12-11T09:20:36.170Z,24.80
2022-12-11T09:25:40.454Z,18.33
2022-12-11T09:30:42.318Z,25.63
2022-12-11T09:35:44.248Z,22.20
2022-12-11T09:40:46.141Z,27.27
2022-12-11T09:45:50.776Z,28.52
2022-12-11T09:50:55.210Z,32.03
2022-12-11T09:56:06.059Z,28.13
2022-12-11T10:01:26.458Z,34.35
2022-12-11T10:06:53.064Z,27.83
2022-12-11T10:12:22.060Z,23.70
2022-12-11T10:17:34.152Z,24.67
2022-12-11T10:22:36.559Z,23.98
2022-12-11T10:27:40.204Z,27.38
2022-12-11T10:32:53.848Z,29.20
2022-12-11T10:38:09.793Z,26.67
2022-12-11T10:43:12.635Z,25.27
2022-12-11T10:48:14.494Z,30.67
2022-12-11T10:53:22.469Z,32.92
2022-12-11T10:58:29.542Z,24.05
2022-12-11T11:03:33.286Z,32.38
2022-12-11T11:08:47.897Z,27.80
2022-12-11T11:13:50.127Z,31.40
2022-12-11T11:18:56.162Z,28.48
2022-12-11T11:23:58.336Z,27.75
2022-12-11T11:29:00.360Z,22.63
2022-12-11T11:34:06.727Z,21.95
2022-12-11T11:39:17.713Z,26.70
2022-12-11T11:44:39.625Z,22.77
2022-12-11T11:49:49.681Z,27.48
2022-12-11T11:55:02.218Z,21.60
2022-12-11T12:00:20.868Z,21.42
2022-12-11T12:05:31.054Z,21.83
2022-12-11T12:10:44.270Z,22.52
2022-12-11T12:15:56.280Z,19.70
2022-12-11T12:21:17.334Z,23.88
2022-12-11T12:26:21.868Z,23.25
2022-12-11T12:31:53.650Z,23.10
2022-12-11T12:37:00.385Z,20.27
2022-12-11T12:42:43.332Z,19.42
2022-12-11T12:47:53.217Z,21.25
2022-12-11T12:52:56.922Z,15.10
2022-12-11T12:58:05.227Z,20.75
2022-12-11T13:03:20.949Z,22.05
2022-12-11T13:08:28.928Z,24.60
2022-12-11T13:13:39.296Z,21.20
2022-12-11T13:18:42.310Z,17.88
2022-12-11T13:23:44.141Z,14.98
2022-12-11T13:28:49.321Z,18.42
2022-12-11T13:33:56.900Z,19.85
2022-12-11T13:39:06.879Z,36.55
2022-12-11T13:44:18.534Z,34.58
2022-12-11T13:49:34.540Z,29.23
2022-12-11T13:54:36.609Z,20.73
2022-12-11T13:59:43.019Z,21.95
2022-12-11T14:04:46.452Z,23.02
2022-12-11T14:09:48.347Z,21.27
2022-12-11T14:14:57.120Z,19.80
2022-12-11T14:20:01.953Z,20.35
2022-12-11T14:25:21.871Z,23.75
2022-12-11T14:30:29.872Z,17.63
2022-12-11T14:35:38.863Z,18.52
2022-12-11T14:40:44.464Z,15.90
2022-12-11T14:45:49.926Z,19.92
2022-12-11T14:50:55.319Z,19.60
2022-12-11T14:56:01.471Z,23.00
2022-12-11T15:01:06.461Z,20.10
2022-12-11T15:06:29.492Z,22.02
2022-12-11T15:11:32.872Z,26.20
2022-12-11T15:16:40.963Z,26.27
2022-12-11T15:21:42.800Z,22.60
2022-12-11T15:26:48.016Z,28.27
2022-12-11T15:32:08.710Z,30.00
2022-12-11T15:37:25.932Z,32.45
2022-12-11T15:42:39.890Z,27.45
2022-12-11T15:47:43.363Z,34.55
2022-12-11T15:52:46.422Z,24.45
2022-12-11T15:58:01.330Z,26.33
2022-12-11T16:03:03.194Z,27.38
2022-12-11T16:08:05.394Z,30.95
2022-12-11T16:13:07.224Z,31.23
2022-12-11T16:18:12.164Z,28.15
2022-12-11T16:23:16.446Z,37.40
2022-12-11T16:28:21.231Z,25.45
2022-12-11T16:33:23.080Z,32.63
2022-12-11T16:38:25.177Z,27.05
2022-12-11T16:43:27.300Z,31.33
2022-12-11T16:48:29.190Z,31.17
2022-12-11T16:53:31.117Z,33.38
2022-12-11T16:58:33.488Z,30.40
2022-12-11T17:03:35.293Z,33.28
2022-12-11T17:08:37.672Z,28.27
2022-12-11T17:13:39.523Z,29.10
2022-12-11T17:18:42.685Z,37.20
2022-12-11T17:23:45.374Z,31.92
2022-12-11T17:28:47.726Z,37.17
2022-12-11T17:33:50.067Z,29.00
2022-12-11T17:38:52.043Z,40.40
2022-12-11T17:43:55.915Z,37.13
2022-12-11T17:49:00.216Z,30.27
2022-12-11T17:54:02.314Z,30.33
2022-12-11T17:59:04.914Z,31.42
2022-12-11T18:04:07.104Z,40.60
2022-12-11T18:09:11.523Z,35.80
2022-12-11T18:14:17.213Z,30.52
2022-12-11T18:19:20.336Z,33.60
2022-12-11T18:24:23.001Z,33.00
2022-12-11T18:29:25.898Z,33.30
2022-12-11T18:34:27.894Z,37.13
2022-12-11T18:39:29.789Z,30.85
2022-12-11T18:44:31.667Z,28.95
2022-12-11T18:49:33.450Z,32.03
2022-12-11T18:54:35.575Z,35.55
2022-12-11T18:59:37.857Z,42.13
2022-12-11T19:04:39.687Z,35.20
2022-12-11T19:09:47.526Z,30.35
2022-12-11T19:14:49.568Z,33.15
2022-12-11T19:19:51.398Z,31.80
2022-12-11T19:24:53.199Z,34.83
2022-12-11T19:29:55.020Z,36.03
2022-12-11T19:34:56.829Z,37.78
2022-12-11T19:39:58.661Z,31.83
2022-12-11T19:45:00.478Z,31.73
2022-12-11T19:50:02.410Z,34.58
2022-12-11T19:55:06.285Z,32.50
2022-12-11T20:00:08.614Z,36.08
2022-12-11T20:05:14.634Z,44.55
2022-12-11T20:10:16.887Z,38.85
2022-12-11T20:15:20.726Z,41.00
2022-12-11T20:20:24.400Z,33.97
2022-12-11T20:25:27.840Z,33.67
2022-12-11T20:30:30.015Z,39.78
2022-12-11T20:35:32.289Z,34.90
2022-12-11T20:40:34.513Z,33.72
2022-12-11T20:45:36.504Z,39.38
2022-12-11T20:50:38.965Z,38.78
2022-12-11T20:55:42.614Z,35.28
2022-12-11T21:00:45.198Z,35.85
2022-12-11T21:05:47.427Z,33.65
2022-12-11T21:10:49.513Z,35.33
2022-12-11T21:15:54.150Z,31.27
2022-12-11T21:20:56.946Z,41.15
2022-12-11T21:25:59.898Z,40.95
2022-12-11T21:31:03.804Z,42.72
2022-12-11T21:36:07.062Z,42.35
2022-12-11T21:41:24.157Z,35.03
2022-12-11T21:46:29.144Z,40.70
2022-12-11T21:51:37.919Z,38.70
2022-12-11T21:56:42.662Z,44.28
2022-12-11T22:01:46.255Z,39.35
2022-12-11T22:06:48.230Z,40.92
2022-12-11T22:11:55.051Z,38.33
2022-12-11T22:16:59.946Z,59.08
2022-12-11T22:22:01.932Z,48.47
2022-12-11T22:27:04.326Z,32.97
2022-12-11T22:32:06.137Z,39.17
2022-12-11T22:37:07.977Z,34.95
2022-12-11T22:42:09.779Z,42.80
2022-12-11T22:47:11.711Z,44.35
2022-12-11T22:52:13.633Z,43.50
2022-12-11T22:57:15.498Z,42.22
2022-12-11T23:02:17.380Z,47.60
2022-12-11T23:07:19.228Z,46.65
2022-12-11T23:12:21.096Z,40.72
2022-12-11T23:17:23.242Z,43.47
2022-12-11T23:22:25.035Z,49.00
2022-12-11T23:27:26.867Z,45.60
2022-12-11T23:32:28.670Z,41.90
2022-12-11T23:37:30.463Z,42.85
2022-12-11T23:42:33.821Z,45.58
2022-12-11T23:47:35.604Z,47.30
2022-12-11T23:52:37.404Z,45.05
2022-12-11T23:57:39.376Z,44.33
